createdAt,value
2022-10-11T00:00:01.179Z,487.15
2022-10-11T00:00:11.183Z,487.15
2022-10-11T00:00:21.196Z,487.21
2022-10-11T00:00:31.192Z,487.20
2022-10-11T00:00:41.193Z,487.14
2022-10-11T00:00:51.226Z,487.16
2022-10-11T00:01:01.239Z,487.12
2022-10-11T00:01:11.258Z,487.14
2022-10-11T00:01:21.279Z,487.11
2022-10-11T00:01:31.287Z,487.13
2022-10-11T00:01:41.320Z,487.15
2022-10-11T00:01:51.201Z,487.13
2022-10-11T00:02:01.182Z,487.14
2022-10-11T00:02:11.196Z,487.08
2022-10-11T00:02:21.234Z,487.09
2022-10-11T00:02:31.197Z,487.08
2022-10-11T00:02:41.197Z,487.03
2022-10-11T00:02:51.222Z,486.96
2022-10-11T00:03:01.205Z,487.00
2022-10-11T00:03:11.197Z,486.94
2022-10-11T00:03:21.213Z,486.89
2022-10-11T00:03:31.202Z,486.94
2022-10-11T00:03:41.204Z,486.91
2022-10-11T00:03:51.924Z,486.87
2022-10-11T00:04:01.203Z,486.83
2022-10-11T00:04:11.201Z,486.93
2022-10-11T00:04:21.203Z,486.92
2022-10-11T00:04:31.203Z,486.96
2022-10-11T00:04:41.204Z,486.95
2022-10-11T00:04:51.189Z,486.95
2022-10-11T00:05:01.203Z,486.97
2022-10-11T00:05:11.208Z,486.94
2022-10-11T00:05:21.204Z,487.01
2022-10-11T00:05:31.195Z,486.96
2022-10-11T00:05:41.207Z,486.95
2022-10-11T00:05:51.211Z,486.94
2022-10-11T00:06:01.427Z,486.98
2022-10-11T00:06:11.209Z,486.95
2022-10-11T00:06:21.194Z,486.95
2022-10-11T00:06:31.211Z,487.04
2022-10-11T00:06:41.208Z,487.04
2022-10-11T00:06:51.210Z,487.01
2022-10-11T00:07:01.195Z,487.07
2022-10-11T00:07:11.209Z,487.01
2022-10-11T00:07:21.229Z,487.08
2022-10-11T00:07:31.214Z,487.06
2022-10-11T00:07:41.202Z,487.08
2022-10-11T00:07:51.214Z,487.06
2022-10-11T00:08:01.203Z,487.04
2022-10-11T00:08:11.213Z,487.10
2022-10-11T00:08:21.213Z,487.04
2022-10-11T00:08:31.214Z,486.98
2022-10-11T00:08:41.223Z,486.94
2022-10-11T00:08:51.924Z,486.84
2022-10-11T00:09:01.222Z,486.87
2022-10-11T00:09:11.226Z,486.78
2022-10-11T00:09:21.221Z,486.73
2022-10-11T00:09:31.221Z,486.75
2022-10-11T00:09:41.228Z,486.73
2022-10-11T00:09:51.223Z,486.72
2022-10-11T00:10:01.228Z,486.69
2022-10-11T00:10:11.224Z,486.65
2022-10-11T00:10:21.231Z,486.59
2022-10-11T00:10:31.227Z,486.66
2022-10-11T00:10:41.237Z,486.58
2022-10-11T00:10:51.227Z,486.64
2022-10-11T00:11:01.242Z,486.61
2022-10-11T00:11:11.231Z,486.56
2022-10-11T00:11:21.234Z,486.57
2022-10-11T00:11:31.233Z,486.52
2022-10-11T00:11:41.235Z,486.57
2022-10-11T00:11:51.233Z,486.53
2022-10-11T00:12:01.232Z,486.46
2022-10-11T00:12:11.242Z,486.48
2022-10-11T00:12:21.256Z,486.45
2022-10-11T00:12:31.235Z,486.42
2022-10-11T00:12:41.240Z,486.37
2022-10-11T00:12:51.236Z,486.36
2022-10-11T00:13:01.240Z,486.36
2022-10-11T00:13:11.246Z,486.34
2022-10-11T00:13:21.239Z,486.27
2022-10-11T00:13:31.245Z,486.20
2022-10-11T00:13:41.241Z,486.19
2022-10-11T00:13:51.327Z,486.16
2022-10-11T00:14:01.239Z,486.16
2022-10-11T00:14:11.249Z,486.18
2022-10-11T00:14:21.243Z,486.18
2022-10-11T00:14:31.241Z,486.13
2022-10-11T00:14:41.242Z,486.09
2022-10-11T00:14:51.242Z,486.03
2022-10-11T00:15:01.243Z,486.06
2022-10-11T00:15:11.247Z,485.99
2022-10-11T00:15:21.246Z,485.96
2022-10-11T00:15:31.245Z,485.91
2022-10-11T00:15:41.246Z,485.93
2022-10-11T00:15:51.248Z,485.89
2022-10-11T00:16:01.542Z,485.85
2022-10-11T00:16:11.246Z,485.91
2022-10-11T00:16:21.248Z,485.90
2022-10-11T00:16:31.252Z,485.84
2022-10-11T00:16:41.252Z,485.83
2022-10-11T00:16:51.253Z,485.86
2022-10-11T00:17:01.250Z,485.83
2022-10-11T00:17:11.256Z,485.73
2022-10-11T00:17:21.306Z,485.74
2022-10-11T00:17:31.255Z,485.71
2022-10-11T00:17:41.257Z,485.59
2022-10-11T00:17:51.261Z,485.52
2022-10-11T00:18:05.222Z,485.57
2022-10-11T00:18:11.254Z,485.45
2022-10-11T00:18:21.254Z,485.49
2022-10-11T00:18:31.261Z,485.44
2022-10-11T00:18:41.258Z,485.36
2022-10-11T00:18:51.338Z,485.40
2022-10-11T00:19:01.263Z,485.37
2022-10-11T00:19:11.266Z,485.45
2022-10-11T00:19:21.260Z,485.42
2022-10-11T00:19:31.262Z,485.42
2022-10-11T00:19:41.266Z,485.38
2022-10-11T00:19:51.284Z,485.33
2022-10-11T00:20:01.267Z,485.38
2022-10-11T00:20:11.268Z,485.29
2022-10-11T00:20:21.268Z,485.36
2022-10-11T00:20:31.270Z,485.31
2022-10-11T00:20:41.270Z,485.35
2022-10-11T00:20:51.269Z,485.33
2022-10-11T00:21:01.272Z,485.30
2022-10-11T00:21:11.268Z,485.32
2022-10-11T00:21:21.270Z,485.29
2022-10-11T00:21:31.268Z,485.25
2022-10-11T00:21:41.274Z,485.28
2022-10-11T00:21:51.275Z,485.24
2022-10-11T00:22:01.273Z,485.28
2022-10-11T00:22:11.274Z,485.26
2022-10-11T00:22:21.282Z,485.17
2022-10-11T00:22:31.306Z,485.24
2022-10-11T00:22:41.275Z,485.21
2022-10-11T00:22:51.274Z,485.17
2022-10-11T00:23:01.280Z,485.20
2022-10-11T00:23:11.274Z,485.17
2022-10-11T00:23:21.276Z,485.13
2022-10-11T00:23:31.282Z,485.19
2022-10-11T00:23:41.281Z,485.18
2022-10-11T00:23:51.345Z,485.15
2022-10-11T00:24:01.287Z,485.13
2022-10-11T00:24:11.281Z,485.10
2022-10-11T00:24:21.289Z,485.11
2022-10-11T00:24:31.281Z,485.03
2022-10-11T00:24:41.280Z,485.10
2022-10-11T00:24:51.285Z,485.09
2022-10-11T00:25:01.291Z,485.01
2022-10-11T00:25:11.286Z,485.01
2022-10-11T00:25:21.289Z,485.00
2022-10-11T00:25:31.285Z,485.05
2022-10-11T00:25:41.291Z,485.00
2022-10-11T00:25:51.290Z,484.95
2022-10-11T00:26:01.528Z,485.00
2022-10-11T00:26:11.295Z,484.96
2022-10-11T00:26:21.292Z,485.04
2022-10-11T00:26:31.295Z,485.02
2022-10-11T00:26:46.361Z,485.07
2022-10-11T00:26:52.298Z,485.04
2022-10-11T00:27:01.299Z,484.97
2022-10-11T00:27:11.296Z,485.03
2022-10-11T00:27:21.293Z,484.98
2022-10-11T00:27:31.303Z,484.91
2022-10-11T00:27:41.298Z,484.86
2022-10-11T00:27:51.299Z,484.90
2022-10-11T00:28:01.308Z,484.86
2022-10-11T00:28:11.342Z,484.81
2022-10-11T00:28:21.389Z,484.77
2022-10-11T00:28:31.334Z,484.71
2022-10-11T00:28:41.372Z,484.76
2022-10-11T00:28:52.022Z,484.74
2022-10-11T00:29:01.307Z,484.70
2022-10-11T00:29:11.304Z,484.73
2022-10-11T00:29:21.302Z,484.67
2022-10-11T00:29:31.310Z,484.69
2022-10-11T00:29:41.309Z,484.66
2022-10-11T00:29:51.306Z,484.62
2022-10-11T00:30:01.313Z,484.63
2022-10-11T00:30:11.316Z,484.56
2022-10-11T00:30:21.307Z,484.61
2022-10-11T00:30:31.359Z,484.56
2022-10-11T00:30:41.312Z,484.53
2022-10-11T00:30:51.311Z,484.50
2022-10-11T00:31:01.545Z,484.49
2022-10-11T00:31:11.311Z,484.54
2022-10-11T00:31:21.313Z,484.50
2022-10-11T00:31:35.510Z,484.54
2022-10-11T00:31:41.323Z,484.51
2022-10-11T00:31:51.313Z,484.47
2022-10-11T00:32:01.317Z,484.40
2022-10-11T00:32:11.321Z,484.45
2022-10-11T00:32:21.313Z,484.38
2022-10-11T00:32:31.321Z,484.31
2022-10-11T00:32:41.316Z,484.34
2022-10-11T00:32:51.327Z,484.29
2022-10-11T00:33:01.324Z,484.21
2022-10-11T00:33:11.320Z,484.13
2022-10-11T00:33:21.319Z,484.13
2022-10-11T00:33:31.320Z,484.18
2022-10-11T00:33:41.323Z,484.17
2022-10-11T00:33:51.351Z,484.10
2022-10-11T00:34:01.327Z,484.06
2022-10-11T00:34:11.323Z,484.12
2022-10-11T00:34:21.327Z,484.08
2022-10-11T00:34:31.326Z,484.08
2022-10-11T00:34:41.325Z,484.05
2022-10-11T00:34:51.328Z,484.04
2022-10-11T00:35:01.359Z,483.99
2022-10-11T00:35:11.325Z,483.95
2022-10-11T00:35:21.327Z,483.97
2022-10-11T00:35:31.327Z,483.97
2022-10-11T00:35:41.330Z,483.88
2022-10-11T00:35:51.331Z,483.93
2022-10-11T00:36:01.534Z,483.93
2022-10-11T00:36:11.332Z,483.86
2022-10-11T00:36:21.331Z,483.84
2022-10-11T00:36:31.333Z,483.88
2022-10-11T00:36:41.336Z,483.84
2022-10-11T00:36:51.331Z,483.78
2022-10-11T00:37:01.335Z,483.80
2022-10-11T00:37:11.344Z,483.78
2022-10-11T00:37:21.334Z,483.77
2022-10-11T00:37:31.338Z,483.71
2022-10-11T00:37:41.339Z,483.75
2022-10-11T00:37:51.342Z,483.75
2022-10-11T00:38:01.337Z,483.79
2022-10-11T00:38:11.336Z,483.75
2022-10-11T00:38:21.341Z,483.68
2022-10-11T00:38:32.118Z,483.74
2022-10-11T00:38:41.356Z,483.69
2022-10-11T00:38:51.353Z,483.63
2022-10-11T00:39:01.381Z,483.66
2022-10-11T00:39:13.742Z,483.62
2022-10-11T00:39:21.348Z,483.52
2022-10-11T00:39:31.343Z,483.46
2022-10-11T00:39:41.345Z,483.47
2022-10-11T00:39:51.350Z,483.44
2022-10-11T00:40:01.347Z,483.36
2022-10-11T00:40:11.350Z,483.37
2022-10-11T00:40:21.352Z,483.33
2022-10-11T00:40:31.355Z,483.28
2022-10-11T00:40:41.354Z,483.25
2022-10-11T00:40:51.357Z,483.30
2022-10-11T00:41:01.355Z,483.25
2022-10-11T00:41:11.353Z,483.21
2022-10-11T00:41:21.355Z,483.23
2022-10-11T00:41:31.353Z,483.19
2022-10-11T00:41:41.361Z,483.26
2022-10-11T00:41:51.357Z,483.24
2022-10-11T00:42:01.360Z,483.23
2022-10-11T00:42:11.356Z,483.28
2022-10-11T00:42:21.360Z,483.24
2022-10-11T00:42:31.368Z,483.23
2022-10-11T00:42:41.358Z,483.23
2022-10-11T00:42:51.363Z,483.27
2022-10-11T00:43:01.391Z,483.28
2022-10-11T00:43:11.368Z,483.21
2022-10-11T00:43:21.365Z,483.25
2022-10-11T00:43:31.367Z,483.23
2022-10-11T00:43:41.364Z,483.16
2022-10-11T00:43:51.367Z,483.11
2022-10-11T00:44:01.368Z,483.16
2022-10-11T00:44:11.391Z,483.06
2022-10-11T00:44:21.367Z,483.13
2022-10-11T00:44:31.368Z,483.07
2022-10-11T00:44:41.368Z,483.02
2022-10-11T00:44:51.372Z,483.10
2022-10-11T00:45:01.369Z,483.09
2022-10-11T00:45:11.379Z,483.06
2022-10-11T00:45:21.371Z,483.07
2022-10-11T00:45:31.376Z,483.05
2022-10-11T00:45:41.374Z,483.00
2022-10-11T00:45:51.375Z,483.01
2022-10-11T00:46:01.636Z,482.97
2022-10-11T00:46:11.375Z,482.93
2022-10-11T00:46:21.379Z,482.94
2022-10-11T00:46:31.379Z,482.95
2022-10-11T00:46:41.380Z,482.89
2022-10-11T00:46:55.604Z,482.92
2022-10-11T00:47:01.396Z,482.89
2022-10-11T00:47:11.378Z,482.85
2022-10-11T00:47:21.381Z,482.79
2022-10-11T00:47:31.387Z,482.80
2022-10-11T00:47:41.391Z,482.75
2022-10-11T00:47:51.382Z,482.74
2022-10-11T00:48:01.381Z,482.80
2022-10-11T00:48:11.384Z,482.78
2022-10-11T00:48:21.384Z,482.75
2022-10-11T00:48:31.386Z,482.70
2022-10-11T00:48:41.385Z,482.74
2022-10-11T00:48:51.391Z,482.72
2022-10-11T00:49:01.386Z,482.65
2022-10-11T00:49:11.386Z,482.67
2022-10-11T00:49:21.387Z,482.63
2022-10-11T00:49:31.390Z,482.60
2022-10-11T00:49:41.399Z,482.55
2022-10-11T00:49:51.398Z,482.51
2022-10-11T00:50:01.391Z,482.51
2022-10-11T00:50:11.390Z,482.45
2022-10-11T00:50:21.394Z,482.46
2022-10-11T00:50:31.394Z,482.43
2022-10-11T00:50:41.413Z,482.49
2022-10-11T00:50:51.397Z,482.44
2022-10-11T00:51:01.692Z,482.51
2022-10-11T00:51:11.396Z,482.49
2022-10-11T00:51:21.395Z,482.45
2022-10-11T00:51:31.503Z,482.48
2022-10-11T00:51:41.401Z,482.51
2022-10-11T00:51:51.397Z,482.47
2022-10-11T00:52:01.397Z,482.54
2022-10-11T00:52:11.395Z,482.50
2022-10-11T00:52:21.397Z,482.50
2022-10-11T00:52:31.400Z,482.47
2022-10-11T00:52:41.401Z,482.42
2022-10-11T00:52:51.398Z,482.38
2022-10-11T00:53:01.399Z,482.43
2022-10-11T00:53:11.399Z,482.39
2022-10-11T00:53:21.399Z,482.39
2022-10-11T00:53:31.401Z,482.36
2022-10-11T00:53:41.413Z,482.33
2022-10-11T00:53:51.386Z,482.39
2022-10-11T00:54:01.405Z,482.33
2022-10-11T00:54:11.401Z,482.28
2022-10-11T00:54:21.402Z,482.29
2022-10-11T00:54:31.403Z,482.26
2022-10-11T00:54:41.405Z,482.22
2022-10-11T00:54:51.412Z,482.17
2022-10-11T00:55:01.416Z,482.20
2022-10-11T00:55:11.406Z,482.15
2022-10-11T00:55:21.415Z,482.12
2022-10-11T00:55:31.409Z,482.11
2022-10-11T00:55:41.422Z,482.08
2022-10-11T00:55:51.409Z,482.09
2022-10-11T00:56:01.944Z,482.04
2022-10-11T00:56:11.412Z,482.09
2022-10-11T00:56:21.412Z,482.06
2022-10-11T00:56:31.413Z,482.03
2022-10-11T00:56:41.428Z,482.05
2022-10-11T00:56:51.414Z,482.00
2022-10-11T00:57:01.433Z,481.96
2022-10-11T00:57:11.420Z,481.95
2022-10-11T00:57:21.416Z,481.87
2022-10-11T00:57:31.423Z,481.93
2022-10-11T00:57:41.419Z,481.87
2022-10-11T00:57:51.420Z,481.82
2022-10-11T00:58:01.424Z,481.79
2022-10-11T00:58:11.430Z,481.85
2022-10-11T00:58:21.427Z,481.83
2022-10-11T00:58:31.430Z,481.79
2022-10-11T00:58:41.438Z,481.81
2022-10-11T00:58:51.427Z,481.74
2022-10-11T00:59:01.427Z,481.80
2022-10-11T00:59:11.427Z,481.74
2022-10-11T00:59:21.428Z,481.79
2022-10-11T00:59:31.434Z,481.76
2022-10-11T00:59:41.433Z,481.76
2022-10-11T00:59:51.430Z,481.75
2022-10-11T01:00:01.431Z,481.71
2022-10-11T01:00:11.425Z,481.71
2022-10-11T01:00:21.439Z,481.74
2022-10-11T01:00:31.435Z,481.73
2022-10-11T01:00:41.438Z,481.75
2022-10-11T01:00:51.498Z,481.67
2022-10-11T01:01:01.467Z,481.69
2022-10-11T01:01:11.506Z,481.65
2022-10-11T01:01:21.454Z,481.71
2022-10-11T01:01:31.455Z,481.66
2022-10-11T01:01:41.492Z,481.71
2022-10-11T01:01:51.527Z,481.69
2022-10-11T01:02:01.426Z,481.65
2022-10-11T01:02:11.428Z,481.69
2022-10-11T01:02:21.442Z,481.64
2022-10-11T01:02:31.457Z,481.69
2022-10-11T01:02:41.440Z,481.66
2022-10-11T01:02:51.440Z,481.66
2022-10-11T01:03:01.441Z,481.63
2022-10-11T01:03:11.445Z,481.59
2022-10-11T01:03:21.444Z,481.63
2022-10-11T01:03:31.446Z,481.56
2022-10-11T01:03:41.455Z,481.60
2022-10-11T01:03:51.445Z,481.53
2022-10-11T01:04:01.447Z,481.48
2022-10-11T01:04:11.448Z,481.47
2022-10-11T01:04:21.445Z,481.47
2022-10-11T01:04:31.450Z,481.44
2022-10-11T01:04:41.444Z,481.37
2022-10-11T01:05:05.694Z,481.43
2022-10-11T01:05:27.775Z,481.39
2022-10-11T01:05:28.763Z,481.36
2022-10-11T01:05:30.413Z,481.41
2022-10-11T01:05:32.477Z,481.38
2022-10-11T01:05:41.452Z,481.43
2022-10-11T01:05:51.454Z,481.41
2022-10-11T01:06:01.753Z,481.34
2022-10-11T01:06:11.454Z,481.38
2022-10-11T01:06:21.459Z,481.36
2022-10-11T01:06:31.457Z,481.43
2022-10-11T01:06:41.457Z,481.39
2022-10-11T01:06:51.457Z,481.35
2022-10-11T01:07:01.456Z,481.36
2022-10-11T01:07:11.457Z,481.37
2022-10-11T01:07:21.461Z,481.43
2022-10-11T01:07:31.476Z,481.36
2022-10-11T01:07:41.460Z,481.42
2022-10-11T01:07:51.464Z,481.40
2022-10-11T01:08:01.463Z,481.39
2022-10-11T01:08:11.449Z,481.39
2022-10-11T01:08:21.462Z,481.44
2022-10-11T01:08:31.449Z,481.39
2022-10-11T01:08:41.468Z,481.35
2022-10-11T01:08:51.469Z,481.36
2022-10-11T01:09:01.464Z,481.40
2022-10-11T01:09:11.466Z,481.32
2022-10-11T01:09:21.471Z,481.36
2022-10-11T01:09:31.482Z,481.33
2022-10-11T01:09:41.466Z,481.29
2022-10-11T01:09:51.480Z,481.22
2022-10-11T01:10:01.469Z,481.31
2022-10-11T01:10:11.475Z,481.30
2022-10-11T01:10:21.466Z,481.27
2022-10-11T01:10:31.474Z,481.34
2022-10-11T01:10:41.472Z,481.34
2022-10-11T01:10:51.468Z,481.35
2022-10-11T01:11:01.472Z,481.37
2022-10-11T01:11:11.476Z,481.38
2022-10-11T01:11:21.459Z,481.34
2022-10-11T01:11:31.473Z,481.38
2022-10-11T01:11:41.460Z,481.34
2022-10-11T01:11:51.473Z,481.31
2022-10-11T01:12:01.478Z,481.38
2022-10-11T01:12:11.479Z,481.31
2022-10-11T01:12:21.462Z,481.37
2022-10-11T01:12:31.476Z,481.36
2022-10-11T01:12:41.486Z,481.35
2022-10-11T01:12:51.478Z,481.32
2022-10-11T01:13:01.487Z,481.28
2022-10-11T01:13:11.480Z,481.34
2022-10-11T01:13:21.489Z,481.28
2022-10-11T01:13:31.484Z,481.32
2022-10-11T01:13:41.484Z,481.25
2022-10-11T01:13:51.490Z,481.27
2022-10-11T01:14:01.487Z,481.29
2022-10-11T01:14:11.484Z,481.30
2022-10-11T01:14:21.489Z,481.31
2022-10-11T01:14:31.491Z,481.19
2022-10-11T01:14:41.487Z,481.23
2022-10-11T01:14:51.478Z,481.19
2022-10-11T01:15:01.501Z,481.23
2022-10-11T01:15:11.488Z,481.19
2022-10-11T01:15:21.488Z,481.15
2022-10-11T01:15:31.497Z,481.17
2022-10-11T01:15:41.494Z,481.16
2022-10-11T01:15:51.492Z,481.24
2022-10-11T01:16:01.902Z,481.16
2022-10-11T01:16:11.493Z,481.24
2022-10-11T01:16:21.502Z,481.23
2022-10-11T01:16:31.493Z,481.24
2022-10-11T01:16:41.494Z,481.22
2022-10-11T01:16:51.482Z,481.28
2022-10-11T01:17:01.498Z,481.22
2022-10-11T01:17:11.511Z,481.22
2022-10-11T01:17:21.504Z,481.30
2022-10-11T01:17:31.550Z,481.29
2022-10-11T01:17:41.503Z,481.21
2022-10-11T01:17:51.499Z,481.26
2022-10-11T01:18:01.485Z,481.23
2022-10-11T01:18:11.499Z,481.20
2022-10-11T01:18:21.510Z,481.14
2022-10-11T01:18:31.505Z,481.03
2022-10-11T01:18:41.505Z,481.09
2022-10-11T01:18:51.523Z,481.04
2022-10-11T01:19:01.506Z,480.96
2022-10-11T01:19:11.507Z,480.95
2022-10-11T01:19:21.510Z,480.99
2022-10-11T01:19:31.509Z,480.96
2022-10-11T01:19:41.508Z,480.96
2022-10-11T01:19:51.514Z,480.91
2022-10-11T01:20:01.514Z,480.93
2022-10-11T01:20:11.509Z,480.89
2022-10-11T01:20:21.510Z,480.85
2022-10-11T01:20:31.509Z,480.89
2022-10-11T01:20:41.515Z,480.88
2022-10-11T01:20:51.510Z,480.86
2022-10-11T01:21:01.508Z,480.85
2022-10-11T01:21:11.512Z,480.80
2022-10-11T01:21:21.519Z,480.76
2022-10-11T01:21:31.513Z,480.69
2022-10-11T01:21:41.514Z,480.71
2022-10-11T01:21:51.520Z,480.72
2022-10-11T01:22:01.514Z,480.76
2022-10-11T01:22:11.529Z,480.72
2022-10-11T01:22:21.518Z,480.73
2022-10-11T01:22:31.516Z,480.65
2022-10-11T01:22:41.522Z,480.68
2022-10-11T01:22:51.522Z,480.70
2022-10-11T01:23:01.521Z,480.71
2022-10-11T01:23:11.520Z,480.67
2022-10-11T01:23:21.529Z,480.78
2022-10-11T01:23:31.535Z,480.66
2022-10-11T01:23:41.524Z,480.73
2022-10-11T01:23:51.527Z,480.68
2022-10-11T01:24:05.999Z,480.65
2022-10-11T01:24:12.527Z,480.68
2022-10-11T01:24:21.530Z,480.68
2022-10-11T01:24:31.535Z,480.69
2022-10-11T01:24:41.528Z,480.65
2022-10-11T01:24:51.535Z,480.60
2022-10-11T01:25:01.533Z,480.62
2022-10-11T01:25:11.533Z,480.65
2022-10-11T01:25:21.542Z,480.66
2022-10-11T01:25:31.535Z,480.60
2022-10-11T01:25:41.539Z,480.67
2022-10-11T01:25:51.536Z,480.67
2022-10-11T01:26:01.853Z,480.67
2022-10-11T01:26:11.534Z,480.63
2022-10-11T01:26:21.540Z,480.59
2022-10-11T01:26:31.551Z,480.64
2022-10-11T01:26:41.549Z,480.60
2022-10-11T01:26:51.541Z,480.58
2022-10-11T01:27:01.546Z,480.64
2022-10-11T01:27:11.540Z,480.63
2022-10-11T01:27:21.548Z,480.61
2022-10-11T01:27:31.554Z,480.57
2022-10-11T01:27:41.547Z,480.48
2022-10-11T01:27:51.549Z,480.45
2022-10-11T01:28:01.550Z,480.50
2022-10-11T01:28:11.586Z,480.47
2022-10-11T01:28:21.581Z,480.44
2022-10-11T01:28:31.576Z,480.49
2022-10-11T01:28:41.627Z,480.44
2022-10-11T01:28:51.635Z,480.48
2022-10-11T01:29:01.537Z,480.47
2022-10-11T01:29:11.540Z,480.44
2022-10-11T01:29:21.552Z,480.45
2022-10-11T01:29:31.554Z,480.44
2022-10-11T01:29:41.539Z,480.44
2022-10-11T01:29:51.551Z,480.42
2022-10-11T01:30:01.548Z,480.44
2022-10-11T01:30:11.555Z,480.43
2022-10-11T01:30:21.557Z,480.38
2022-10-11T01:30:31.560Z,480.45
2022-10-11T01:30:41.557Z,480.48
2022-10-11T01:30:51.559Z,480.46
2022-10-11T01:31:01.561Z,480.46
2022-10-11T01:31:11.562Z,480.52
2022-10-11T01:31:21.563Z,480.51
2022-10-11T01:31:31.560Z,480.49
2022-10-11T01:31:41.561Z,480.55
2022-10-11T01:31:51.563Z,480.53
2022-10-11T01:32:01.566Z,480.50
2022-10-11T01:32:11.562Z,480.52
2022-10-11T01:32:21.565Z,480.58
2022-10-11T01:32:31.567Z,480.55
2022-10-11T01:32:41.570Z,480.56
2022-10-11T01:32:51.565Z,480.56
2022-10-11T01:33:01.555Z,480.58
2022-10-11T01:33:11.572Z,480.60
2022-10-11T01:33:21.550Z,480.62
2022-10-11T01:33:31.551Z,480.64
2022-10-11T01:33:41.572Z,480.61
2022-10-11T01:33:51.569Z,480.66
2022-10-11T01:34:01.571Z,480.64
2022-10-11T01:34:11.581Z,480.60
2022-10-11T01:34:21.572Z,480.68
2022-10-11T01:34:31.576Z,480.68
2022-10-11T01:34:41.639Z,480.65
2022-10-11T01:34:51.573Z,480.63
2022-10-11T01:35:01.576Z,480.57
2022-10-11T01:35:11.582Z,480.60
2022-10-11T01:35:21.585Z,480.61
2022-10-11T01:35:31.562Z,480.61
2022-10-11T01:35:41.578Z,480.71
2022-10-11T01:35:51.583Z,480.71
2022-10-11T01:36:01.991Z,480.81
2022-10-11T01:36:11.586Z,480.73
2022-10-11T01:36:21.583Z,480.78
2022-10-11T01:36:31.583Z,480.74
2022-10-11T01:36:41.587Z,480.66
2022-10-11T01:36:51.584Z,480.70
2022-10-11T01:37:01.587Z,480.67
2022-10-11T01:37:11.571Z,480.60
2022-10-11T01:37:21.585Z,480.55
2022-10-11T01:37:31.587Z,480.56
2022-10-11T01:37:41.594Z,480.52
2022-10-11T01:37:51.589Z,480.57
2022-10-11T01:38:01.579Z,480.56
2022-10-11T01:38:11.577Z,480.53
2022-10-11T01:38:21.593Z,480.60
2022-10-11T01:38:31.590Z,480.52
2022-10-11T01:38:41.581Z,480.60
2022-10-11T01:38:51.598Z,480.58
2022-10-11T01:39:01.591Z,480.53
2022-10-11T01:39:11.601Z,480.52
2022-10-11T01:39:21.599Z,480.57
2022-10-11T01:39:31.584Z,480.60
2022-10-11T01:39:41.599Z,480.60
2022-10-11T01:39:51.599Z,480.57
2022-10-11T01:40:01.642Z,480.63
2022-10-11T01:40:11.600Z,480.58
2022-10-11T01:40:21.605Z,480.58
2022-10-11T01:40:31.605Z,480.56
2022-10-11T01:40:41.592Z,480.67
2022-10-11T01:40:51.605Z,480.68
2022-10-11T01:41:01.610Z,480.63
2022-10-11T01:41:11.606Z,480.66
2022-10-11T01:41:21.600Z,480.67
2022-10-11T01:41:31.608Z,480.62
2022-10-11T01:41:41.612Z,480.58
2022-10-11T01:41:51.609Z,480.61
2022-10-11T01:42:01.621Z,480.64
2022-10-11T01:42:11.612Z,480.66
2022-10-11T01:42:21.613Z,480.64
2022-10-11T01:42:31.614Z,480.64
2022-10-11T01:42:41.618Z,480.69
2022-10-11T01:42:51.614Z,480.71
2022-10-11T01:43:01.620Z,480.75
2022-10-11T01:43:11.614Z,480.73
2022-10-11T01:43:21.600Z,480.71
2022-10-11T01:43:31.616Z,480.72
2022-10-11T01:43:41.622Z,480.73
2022-10-11T01:43:51.623Z,480.67
2022-10-11T01:44:01.645Z,480.67
2022-10-11T01:44:11.626Z,480.68
2022-10-11T01:44:21.621Z,480.68
2022-10-11T01:44:31.627Z,480.65
2022-10-11T01:44:41.622Z,480.59
2022-10-11T01:44:51.625Z,480.53
2022-10-11T01:45:01.623Z,480.53
2022-10-11T01:45:11.626Z,480.52
2022-10-11T01:45:21.626Z,480.58
2022-10-11T01:45:31.630Z,480.60
2022-10-11T01:45:41.623Z,480.56
2022-10-11T01:45:51.629Z,480.51
2022-10-11T01:46:01.966Z,480.50
2022-10-11T01:46:11.629Z,480.57
2022-10-11T01:46:21.632Z,480.46
2022-10-11T01:46:31.636Z,480.47
2022-10-11T01:46:41.628Z,480.51
2022-10-11T01:46:51.630Z,480.45
2022-10-11T01:47:01.629Z,480.51
2022-10-11T01:47:11.630Z,480.42
2022-10-11T01:47:21.634Z,480.46
2022-10-11T01:47:31.633Z,480.43
2022-10-11T01:47:41.635Z,480.39
2022-10-11T01:47:51.633Z,480.45
2022-10-11T01:48:01.641Z,480.43
2022-10-11T01:48:11.632Z,480.44
2022-10-11T01:48:21.634Z,480.37
2022-10-11T01:48:31.636Z,480.42
2022-10-11T01:48:41.634Z,480.35
2022-10-11T01:48:51.635Z,480.33
2022-10-11T01:49:01.635Z,480.42
2022-10-11T01:49:11.640Z,480.43
2022-10-11T01:49:21.638Z,480.40
2022-10-11T01:49:31.638Z,480.37
2022-10-11T01:49:41.639Z,480.34
2022-10-11T01:49:51.639Z,480.38
2022-10-11T01:50:01.642Z,480.34
2022-10-11T01:50:11.641Z,480.28
2022-10-11T01:50:21.653Z,480.25
2022-10-11T01:50:31.648Z,480.33
2022-10-11T01:50:41.647Z,480.30
2022-10-11T01:50:51.664Z,480.33
2022-10-11T01:51:01.646Z,480.28
2022-10-11T01:51:11.645Z,480.22
2022-10-11T01:51:21.649Z,480.30
2022-10-11T01:51:31.648Z,480.26
2022-10-11T01:51:45.230Z,480.24
2022-10-11T01:51:52.646Z,480.16
2022-10-11T01:52:01.660Z,480.22
2022-10-11T01:52:11.646Z,480.18
2022-10-11T01:52:21.656Z,480.19
2022-10-11T01:52:31.652Z,480.12
2022-10-11T01:52:41.656Z,480.14
2022-10-11T01:52:51.655Z,480.21
2022-10-11T01:53:01.656Z,480.24
2022-10-11T01:53:11.653Z,480.20
2022-10-11T01:53:21.655Z,480.29
2022-10-11T01:53:31.654Z,480.18
2022-10-11T01:53:41.658Z,480.21
2022-10-11T01:53:51.662Z,480.13
2022-10-11T01:54:01.659Z,480.11
2022-10-11T01:54:11.656Z,480.11
2022-10-11T01:54:21.659Z,480.17
2022-10-11T01:54:49.808Z,480.21
2022-10-11T01:55:08.094Z,480.15
2022-10-11T01:55:09.698Z,480.13
2022-10-11T01:55:10.692Z,480.12
2022-10-11T01:55:12.662Z,480.18
2022-10-11T01:55:21.667Z,480.17
2022-10-11T01:55:31.671Z,480.21
2022-10-11T01:55:41.665Z,480.14
2022-10-11T01:55:51.668Z,480.12
2022-10-11T01:56:01.986Z,480.16
2022-10-11T01:56:11.665Z,480.06
2022-10-11T01:56:21.666Z,480.09
2022-10-11T01:56:31.671Z,480.11
2022-10-11T01:56:41.668Z,480.10
2022-10-11T01:56:51.674Z,480.08
2022-10-11T01:57:01.673Z,480.09
2022-10-11T01:57:11.675Z,480.19
2022-10-11T01:57:21.675Z,480.19
2022-10-11T01:57:31.673Z,480.17
2022-10-11T01:57:41.676Z,480.25
2022-10-11T01:57:51.675Z,480.29
2022-10-11T01:58:01.677Z,480.29
2022-10-11T01:58:11.676Z,480.26
2022-10-11T01:58:21.676Z,480.22
2022-10-11T01:58:31.682Z,480.19
2022-10-11T01:58:41.683Z,480.22
2022-10-11T01:58:51.705Z,480.18
2022-10-11T01:59:01.682Z,480.14
2022-10-11T01:59:11.684Z,480.20
2022-10-11T01:59:21.680Z,480.15
2022-10-11T01:59:31.686Z,480.23
2022-10-11T01:59:41.716Z,480.22
2022-10-11T01:59:51.684Z,480.21
2022-10-11T02:00:01.691Z,480.23
2022-10-11T02:00:11.689Z,480.12
2022-10-11T02:00:21.688Z,480.15
2022-10-11T02:00:31.694Z,480.15
2022-10-11T02:00:41.686Z,480.20
2022-10-11T02:00:51.695Z,480.20
2022-10-11T02:01:01.705Z,480.17
2022-10-11T02:01:11.731Z,480.23
2022-10-11T02:01:21.750Z,480.22
2022-10-11T02:01:31.771Z,480.20
2022-10-11T02:01:41.742Z,480.23
2022-10-11T02:01:51.732Z,480.24
2022-10-11T02:02:01.705Z,480.26
2022-10-11T02:02:11.692Z,480.22
2022-10-11T02:02:21.697Z,480.29
2022-10-11T02:02:31.681Z,480.26
2022-10-11T02:02:41.684Z,480.22
2022-10-11T02:02:51.716Z,480.27
2022-10-11T02:03:01.699Z,480.21
2022-10-11T02:03:11.703Z,480.28
2022-10-11T02:03:21.703Z,480.22
2022-10-11T02:03:31.702Z,480.24
2022-10-11T02:03:41.700Z,480.25
2022-10-11T02:03:51.705Z,480.22
2022-10-11T02:04:01.701Z,480.21
2022-10-11T02:04:11.710Z,480.15
2022-10-11T02:04:21.709Z,480.13
2022-10-11T02:04:31.704Z,480.11
2022-10-11T02:04:41.704Z,480.18